Terminal Aerodrome Forecast
Issued by NWS

Home | Current Version | Previous Version | Graphics & Text | Print | Product List | Glossary On
Versions: 1 2 3 4 5 6 7 8 9 10 11 12 13 14 15 16 17 18 19 20 21 22
000
FTUS43 KDVN 022300 RRA
TAFBRL
TAF
KBRL 022349Z 0300/0324 14007KT P6SM OVC080
     FM030800 15012KT 4SM -SNPL BR OVC035
     FM031200 17014G20KT 3SM -FZRAPL BR OVC025
     FM031500 19015G22KT 3SM -RA BR OVC015
     FM031700 22011KT 5SM BR OVC015
     FM032200 28014KT P6SM OVC022=

USA.gov is the U.S. government's official web portal to all federal, state and local government web resources and services.